PWSweather.com
Personal Weather Stations
Station Observations
IONTARIO88
Lincoln, ON L0R

Lincoln, ON L0R

Lat: 43.1763563, Lon: -79.4719525

Elevation: 297

Station Type: Davis Vantage Pro 2 Plus

http://www.beamsvillewx.ca

High Low Average
Temperature 26.4°F-3.1°C 16.2°F-8.8°C 21.1°F-6.1°C
Dew Point 23.0°F-5.0°C 10.1°F-12.2°C 16.6°F-8.6°C
Winds 9.0 mph 14.5 kmh Calm Calm 3.0 mph S4.8 kmh S
Wind Gusts 16.0 mph25.7 kmh -- 6.0 mph9.7 kmh
Humidity 91% 71% 83%
Pressure 30.46 in1031.5 mb 30.04 in1017.3 mb -
Precipitation 0.25 in6.4 mm - -
Hour Temp Dew Point Humidity Winds Wind Gusts Pressure Precip Precip Rate Daily Precip Total
12:00 AM 16.7°F-8.5°C 9.8°F-12.3°C 74% Calm Calm 2.0 mph3.2 kmh 30.48 in1032.2 mb 0.00 in0.0 mm 0.00 in0.0 mm 0.04 in1.0 mm
12:15 AM 16.5°F-8.6°C 10.0°F-12.2°C 75% Calm Calm 1.0 mph1.6 kmh 30.48 in1032.2 mb 0.00 in0.0 mm 0.00 in0.0 mm 0.04 in1.0 mm
12:30 AM 16.9°F-8.4°C 10.3°F-12.1°C 75% Calm Calm -- 30.48 in1032.2 mb 0.00 in0.0 mm 0.00 in0.0 mm 0.04 in1.0 mm
12:45 AM 16.9°F-8.4°C 10.3°F-12.1°C 75% Calm Calm -- 30.47 in1031.8 mb 0.00 in0.0 mm 0.00 in0.0 mm 0.04 in1.0 mm
01:00 AM 16.5°F-8.6°C 10.3°F-12.1°C 76% Calm Calm -- 30.46 in1031.5 mb 0.00 in0.0 mm 0.00 in0.0 mm 0.00 in0.0 mm
01:15 AM 16.3°F-8.7°C 10.1°F-12.2°C 76% Calm Calm -- 30.45 in1031.2 mb 0.00 in0.0 mm 0.00 in0.0 mm 0.00 in0.0 mm
01:30 AM 16.2°F-8.8°C 10.2°F-12.1°C 77% Calm Calm -- 30.45 in1031.2 mb 0.00 in0.0 mm 0.00 in0.0 mm 0.00 in0.0 mm
01:45 AM 16.3°F-8.7°C 10.4°F-12.0°C 77% Calm Calm -- 30.44 in1030.8 mb 0.00 in0.0 mm 0.00 in0.0 mm 0.00 in0.0 mm
02:00 AM 16.7°F-8.5°C 11.0°F-11.7°C 78% Calm Calm -- 30.43 in1030.5 mb 0.00 in0.0 mm 0.00 in0.0 mm 0.00 in0.0 mm
02:15 AM 16.7°F-8.5°C 10.7°F-11.8°C 77% Calm Calm -- 30.41 in1029.8 mb 0.00 in0.0 mm 0.00 in0.0 mm 0.00 in0.0 mm
02:30 AM 16.9°F-8.4°C 11.2°F-11.6°C 78% Calm Calm -- 30.41 in1029.8 mb 0.00 in0.0 mm 0.00 in0.0 mm 0.00 in0.0 mm
02:45 AM 17.2°F-8.2°C 11.6°F-11.3°C 78% Calm Calm -- 30.42 in1030.1 mb 0.00 in0.0 mm 0.00 in0.0 mm 0.00 in0.0 mm
03:00 AM 17.4°F-8.1°C 12.0°F-11.1°C 79% Calm Calm -- 30.41 in1029.8 mb 0.00 in0.0 mm 0.00 in0.0 mm 0.00 in0.0 mm
03:15 AM 17.8°F-7.9°C 12.4°F-10.9°C 79% Calm Calm -- 30.41 in1029.8 mb 0.00 in0.0 mm 0.00 in0.0 mm 0.00 in0.0 mm
03:30 AM 18.3°F-7.6°C 12.9°F-10.6°C 79% Calm Calm -- 30.41 in1029.8 mb 0.00 in0.0 mm 0.00 in0.0 mm 0.00 in0.0 mm
03:45 AM 18.9°F-7.3°C 13.4°F-10.3°C 79% Calm Calm -- 30.41 in1029.8 mb 0.00 in0.0 mm 0.00 in0.0 mm 0.00 in0.0 mm
04:00 AM 18.9°F-7.3°C 12.5°F-10.8°C 76% Calm Calm -- 30.40 in1029.5 mb 0.00 in0.0 mm 0.00 in0.0 mm 0.00 in0.0 mm
04:15 AM 18.7°F-7.4°C 12.4°F-10.9°C 76% Calm Calm -- 30.38 in1028.8 mb 0.00 in0.0 mm 0.00 in0.0 mm 0.00 in0.0 mm
04:30 AM 18.7°F-7.4°C 12.7°F-10.7°C 77% Calm Calm -- 30.37 in1028.4 mb 0.00 in0.0 mm 0.00 in0.0 mm 0.00 in0.0 mm
04:45 AM 18.5°F-7.5°C 13.4°F-10.3°C 80% Calm Calm -- 30.36 in1028.1 mb 0.00 in0.0 mm 0.00 in0.0 mm 0.00 in0.0 mm
05:00 AM 18.3°F-7.6°C 13.7°F-10.2°C 82% Calm Calm -- 30.36 in1028.1 mb 0.00 in0.0 mm 0.00 in0.0 mm 0.00 in0.0 mm
05:15 AM 18.5°F-7.5°C 14.5°F-9.7°C 84% Calm Calm -- 30.35 in1027.8 mb 0.00 in0.0 mm 0.00 in0.0 mm 0.00 in0.0 mm
05:30 AM 18.7°F-7.4°C 14.9°F-9.5°C 85% Calm Calm 2.0 mph3.2 kmh 30.35 in1027.8 mb 0.00 in0.0 mm 0.00 in0.0 mm 0.00 in0.0 mm
05:45 AM 19.0°F-7.2°C 15.5°F-9.2°C 86% 1.0 mph WSW1.6 kmh WSW 4.0 mph6.4 kmh 30.35 in1027.8 mb 0.00 in0.0 mm 0.00 in0.0 mm 0.00 in0.0 mm
06:00 AM 19.2°F-7.1°C 16.0°F-8.9°C 87% 2.0 mph WSW3.2 kmh WSW 4.0 mph6.4 kmh 30.35 in1027.8 mb 0.00 in0.0 mm 0.00 in0.0 mm 0.00 in0.0 mm
06:15 AM 19.2°F-7.1°C 16.2°F-8.8°C 88% 1.0 mph WSW1.6 kmh WSW 4.0 mph6.4 kmh 30.33 in1027.1 mb 0.00 in0.0 mm 0.00 in0.0 mm 0.00 in0.0 mm
06:30 AM 19.0°F-7.2°C 16.1°F-8.8°C 88% Calm Calm 2.0 mph3.2 kmh 30.31 in1026.4 mb 0.01 in0.3 mm 0.04 in1.0 mm 0.01 in0.3 mm
06:45 AM 19.0°F-7.2°C 16.3°F-8.7°C 89% 1.0 mph WSW1.6 kmh WSW 3.0 mph4.8 kmh 30.28 in1025.4 mb 0.02 in0.5 mm 0.04 in1.0 mm 0.02 in0.5 mm
07:00 AM 19.0°F-7.2°C 16.3°F-8.7°C 89% Calm Calm 3.0 mph4.8 kmh 30.26 in1024.7 mb 0.02 in0.5 mm 0.00 in0.0 mm 0.02 in0.5 mm
07:15 AM 19.6°F-6.9°C 17.1°F-8.3°C 90% Calm Calm 2.0 mph3.2 kmh 30.26 in1024.7 mb 0.03 in0.8 mm 0.04 in1.0 mm 0.03 in0.8 mm
07:30 AM 19.9°F-6.7°C 17.5°F-8.1°C 90% Calm Calm -- 30.25 in1024.4 mb 0.02 in0.5 mm 0.00 in0.0 mm 0.03 in0.8 mm
07:45 AM 20.7°F-6.3°C 18.2°F-7.7°C 90% 1.0 mph WSW1.6 kmh WSW 3.0 mph4.8 kmh 30.24 in1024.0 mb 0.02 in0.5 mm 0.00 in0.0 mm 0.04 in1.0 mm
08:00 AM 20.7°F-6.3°C 18.2°F-7.7°C 90% 2.0 mph WSW3.2 kmh WSW 4.0 mph6.4 kmh 30.24 in1024.0 mb 0.02 in0.5 mm 0.00 in0.0 mm 0.04 in1.0 mm
08:15 AM 20.1°F-6.6°C 17.4°F-8.1°C 89% 1.0 mph WSW1.6 kmh WSW 4.0 mph6.4 kmh 30.23 in1023.7 mb 0.01 in0.3 mm 0.00 in0.0 mm 0.04 in1.0 mm
08:30 AM 19.9°F-6.7°C 17.5°F-8.1°C 90% Calm Calm -- 30.22 in1023.4 mb 0.02 in0.5 mm 0.04 in1.0 mm 0.05 in1.3 mm
08:45 AM 19.9°F-6.7°C 17.5°F-8.1°C 90% Calm Calm -- 30.21 in1023.0 mb 0.02 in0.5 mm 0.00 in0.0 mm 0.06 in1.5 mm
09:00 AM 19.9°F-6.7°C 17.5°F-8.1°C 90% Calm Calm -- 30.21 in1023.0 mb 0.04 in1.0 mm 0.03 in0.8 mm 0.08 in2.0 mm
09:15 AM 20.5°F-6.4°C 18.0°F-7.8°C 90% Calm Calm -- 30.21 in1023.0 mb 0.05 in1.3 mm 0.04 in1.0 mm 0.09 in2.3 mm
09:30 AM 20.7°F-6.3°C 17.9°F-7.8°C 89% Calm Calm -- 30.20 in1022.7 mb 0.06 in1.5 mm 0.04 in1.0 mm 0.10 in2.5 mm
09:45 AM 21.0°F-6.1°C 18.3°F-7.6°C 89% Calm Calm -- 30.19 in1022.4 mb 0.05 in1.3 mm 0.00 in0.0 mm 0.11 in2.8 mm
10:00 AM 21.4°F-5.9°C 18.6°F-7.4°C 89% Calm Calm -- 30.18 in1022.0 mb 0.05 in1.3 mm 0.00 in0.0 mm 0.13 in3.3 mm
10:15 AM 21.6°F-5.8°C 18.8°F-7.3°C 89% Calm Calm -- 30.16 in1021.3 mb 0.05 in1.3 mm 0.00 in0.0 mm 0.13 in3.3 mm
10:30 AM 21.6°F-5.8°C 18.8°F-7.3°C 89% Calm Calm -- 30.15 in1021.0 mb 0.04 in1.0 mm 0.00 in0.0 mm 0.14 in3.6 mm
10:45 AM 21.9°F-5.6°C 19.2°F-7.1°C 89% Calm Calm -- 30.15 in1021.0 mb 0.04 in1.0 mm 0.00 in0.0 mm 0.15 in3.8 mm
11:00 AM 22.6°F-5.2°C 19.9°F-6.7°C 89% Calm Calm -- 30.13 in1020.3 mb 0.03 in0.8 mm 0.00 in0.0 mm 0.16 in4.1 mm
11:15 AM 23.4°F-4.8°C 20.3°F-6.5°C 88% Calm Calm -- 30.12 in1020.0 mb 0.03 in0.8 mm 0.00 in0.0 mm 0.17 in4.3 mm
11:30 AM 24.3°F-4.3°C 21.2°F-6.0°C 88% Calm Calm -- 30.11 in1019.6 mb 0.03 in0.8 mm 0.00 in0.0 mm 0.17 in4.3 mm
11:45 AM 24.4°F-4.2°C 21.1°F-6.1°C 87% Calm Calm -- 30.11 in1019.6 mb 0.03 in0.8 mm 0.00 in0.0 mm 0.18 in4.6 mm
12:00 PM 24.6°F-4.1°C 21.0°F-6.1°C 86% Calm Calm -- 30.10 in1019.3 mb 0.03 in0.8 mm 0.00 in0.0 mm 0.19 in4.8 mm
12:15 PM 25.0°F-3.9°C 21.7°F-5.7°C 87% Calm Calm -- 30.09 in1019.0 mb 0.02 in0.5 mm 0.00 in0.0 mm 0.19 in4.8 mm
12:30 PM 24.8°F-4.0°C 21.8°F-5.7°C 88% Calm Calm -- 30.08 in1018.6 mb 0.02 in0.5 mm 0.00 in0.0 mm 0.20 in5.1 mm
12:45 PM 25.3°F-3.7°C 22.3°F-5.4°C 88% Calm Calm 2.0 mph3.2 kmh 30.07 in1018.3 mb 0.02 in0.5 mm 0.00 in0.0 mm 0.20 in5.1 mm
01:00 PM 25.5°F-3.6°C 22.7°F-5.2°C 89% 1.0 mph WSW1.6 kmh WSW 3.0 mph4.8 kmh 30.07 in1018.3 mb 0.02 in0.5 mm 0.00 in0.0 mm 0.21 in5.3 mm
01:15 PM 26.1°F-3.3°C 23.0°F-5.0°C 88% 2.0 mph WSW3.2 kmh WSW 5.0 mph8.0 kmh 30.06 in1017.9 mb 0.03 in0.8 mm 0.04 in1.0 mm 0.22 in5.6 mm
01:30 PM 25.3°F-3.7°C 22.6°F-5.2°C 89% 7.0 mph N11.3 kmh N 11.0 mph17.7 kmh 30.06 in1017.9 mb 0.03 in0.8 mm 0.00 in0.0 mm 0.23 in5.8 mm
01:45 PM 25.2°F-3.8°C 22.6°F-5.2°C 90% 8.0 mph NNW12.9 kmh NNW 14.0 mph22.5 kmh 30.06 in1017.9 mb 0.03 in0.8 mm 0.00 in0.0 mm 0.24 in6.1 mm
02:00 PM 25.2°F-3.8°C 22.9°F-5.1°C 91% 7.0 mph NNW11.3 kmh NNW 14.0 mph22.5 kmh 30.04 in1017.3 mb 0.03 in0.8 mm 0.00 in0.0 mm 0.24 in6.1 mm
02:15 PM 25.2°F-3.8°C 22.4°F-5.3°C 89% 8.0 mph N12.9 kmh N 15.0 mph24.1 kmh 30.04 in1017.3 mb 0.02 in0.5 mm 0.00 in0.0 mm 0.24 in6.1 mm
02:30 PM 24.6°F-4.1°C 21.8°F-5.7°C 89% 7.0 mph N11.3 kmh N 15.0 mph24.1 kmh 30.04 in1017.3 mb 0.02 in0.5 mm 0.00 in0.0 mm 0.25 in6.4 mm
02:45 PM 24.6°F-4.1°C 21.8°F-5.7°C 89% 9.0 mph N14.5 kmh N 13.0 mph20.9 kmh 30.04 in1017.3 mb 0.02 in0.5 mm 0.00 in0.0 mm 0.25 in6.4 mm
03:00 PM 25.0°F-3.9°C 22.2°F-5.4°C 89% 7.0 mph N11.3 kmh N 13.0 mph20.9 kmh 30.05 in1017.6 mb 0.01 in0.3 mm 0.00 in0.0 mm 0.25 in6.4 mm
03:15 PM 24.8°F-4.0°C 21.8°F-5.7°C 88% 9.0 mph NNW14.5 kmh NNW 16.0 mph25.7 kmh 30.06 in1017.9 mb 0.01 in0.3 mm 0.00 in0.0 mm 0.25 in6.4 mm
03:30 PM 24.8°F-4.0°C 21.5°F-5.8°C 87% 8.0 mph NNW12.9 kmh NNW 14.0 mph22.5 kmh 30.06 in1017.9 mb 0.00 in0.0 mm 0.00 in0.0 mm 0.25 in6.4 mm
03:45 PM 24.6°F-4.1°C 21.0°F-6.1°C 86% 8.0 mph NNW12.9 kmh NNW 16.0 mph25.7 kmh 30.07 in1018.3 mb 0.00 in0.0 mm 0.00 in0.0 mm 0.25 in6.4 mm
04:00 PM 25.0°F-3.9°C 21.4°F-5.9°C 86% 7.0 mph NNW11.3 kmh NNW 13.0 mph20.9 kmh 30.07 in1018.3 mb 0.00 in0.0 mm 0.00 in0.0 mm 0.25 in6.4 mm
04:15 PM 25.3°F-3.7°C 21.2°F-6.0°C 84% 7.0 mph NNW11.3 kmh NNW 13.0 mph20.9 kmh 30.07 in1018.3 mb 0.00 in0.0 mm 0.00 in0.0 mm 0.25 in6.4 mm
04:30 PM 25.5°F-3.6°C 20.8°F-6.2°C 82% 7.0 mph N11.3 kmh N 15.0 mph24.1 kmh 30.09 in1019.0 mb 0.00 in0.0 mm 0.00 in0.0 mm 0.25 in6.4 mm
04:45 PM 25.9°F-3.4°C 21.1°F-6.1°C 82% 5.0 mph N8.0 kmh N 10.0 mph16.1 kmh 30.09 in1019.0 mb 0.00 in0.0 mm 0.00 in0.0 mm 0.25 in6.4 mm
05:00 PM 26.2°F-3.2°C 21.5°F-5.8°C 82% 5.0 mph NNW8.0 kmh NNW 10.0 mph16.1 kmh 30.09 in1019.0 mb 0.00 in0.0 mm 0.00 in0.0 mm 0.25 in6.4 mm
05:15 PM 26.4°F-3.1°C 21.4°F-5.9°C 81% 6.0 mph NW9.7 kmh NW 11.0 mph17.7 kmh 30.10 in1019.3 mb 0.00 in0.0 mm 0.00 in0.0 mm 0.25 in6.4 mm
05:30 PM 26.4°F-3.1°C 21.7°F-5.7°C 82% 5.0 mph NW8.0 kmh NW 10.0 mph16.1 kmh 30.11 in1019.6 mb 0.00 in0.0 mm 0.00 in0.0 mm 0.25 in6.4 mm
05:45 PM 26.4°F-3.1°C 21.1°F-6.1°C 80% 5.0 mph NW8.0 kmh NW 12.0 mph19.3 kmh 30.12 in1020.0 mb 0.00 in0.0 mm 0.00 in0.0 mm 0.25 in6.4 mm
06:00 PM 26.2°F-3.2°C 20.0°F-6.7°C 77% 6.0 mph WNW9.7 kmh WNW 11.0 mph17.7 kmh 30.13 in1020.3 mb 0.00 in0.0 mm 0.00 in0.0 mm 0.25 in6.4 mm
06:15 PM 26.4°F-3.1°C 19.6°F-6.9°C 75% 8.0 mph NW12.9 kmh NW 14.0 mph22.5 kmh 30.14 in1020.7 mb 0.00 in0.0 mm 0.00 in0.0 mm 0.25 in6.4 mm
06:30 PM 25.5°F-3.6°C 17.4°F-8.1°C 71% 8.0 mph NW12.9 kmh NW 14.0 mph22.5 kmh 30.15 in1021.0 mb 0.00 in0.0 mm 0.00 in0.0 mm 0.25 in6.4 mm
06:45 PM 24.8°F-4.0°C 16.7°F-8.5°C 71% 7.0 mph NNW11.3 kmh NNW 11.0 mph17.7 kmh 30.15 in1021.0 mb 0.00 in0.0 mm 0.00 in0.0 mm 0.25 in6.4 mm
07:00 PM 24.8°F-4.0°C 17.7°F-7.9°C 74% 6.0 mph WNW9.7 kmh WNW 11.0 mph17.7 kmh 30.17 in1021.7 mb 0.00 in0.0 mm 0.00 in0.0 mm 0.25 in6.4 mm
07:15 PM 24.4°F-4.2°C 17.0°F-8.3°C 73% 8.0 mph NW12.9 kmh NW 15.0 mph24.1 kmh 30.18 in1022.0 mb 0.00 in0.0 mm 0.00 in0.0 mm 0.25 in6.4 mm
07:30 PM 23.2°F-4.9°C 16.1°F-8.8°C 74% 8.0 mph WNW12.9 kmh WNW 16.0 mph25.7 kmh 30.20 in1022.7 mb 0.00 in0.0 mm 0.00 in0.0 mm 0.25 in6.4 mm
07:45 PM 22.5°F-5.3°C 15.7°F-9.1°C 75% 7.0 mph WNW11.3 kmh WNW 13.0 mph20.9 kmh 30.21 in1023.0 mb 0.00 in0.0 mm 0.00 in0.0 mm 0.25 in6.4 mm
08:00 PM 21.9°F-5.6°C 15.2°F-9.3°C 75% 6.0 mph W9.7 kmh W 12.0 mph19.3 kmh 30.22 in1023.4 mb 0.00 in0.0 mm 0.00 in0.0 mm 0.25 in6.4 mm
08:15 PM 21.2°F-6.0°C 14.8°F-9.6°C 76% 6.0 mph W9.7 kmh W 11.0 mph17.7 kmh 30.23 in1023.7 mb 0.00 in0.0 mm 0.00 in0.0 mm 0.25 in6.4 mm
08:30 PM 20.7°F-6.3°C 14.3°F-9.8°C 76% 6.0 mph W9.7 kmh W 10.0 mph16.1 kmh 30.24 in1024.0 mb 0.00 in0.0 mm 0.00 in0.0 mm 0.25 in6.4 mm
08:45 PM 19.8°F-6.8°C 13.7°F-10.2°C 77% 6.0 mph W9.7 kmh W 10.0 mph16.1 kmh 30.25 in1024.4 mb 0.00 in0.0 mm 0.00 in0.0 mm 0.25 in6.4 mm
09:00 PM 19.2°F-7.1°C 13.5°F-10.3°C 78% 7.0 mph W11.3 kmh W 13.0 mph20.9 kmh 30.26 in1024.7 mb 0.00 in0.0 mm 0.00 in0.0 mm 0.25 in6.4 mm
09:15 PM 19.0°F-7.2°C 13.3°F-10.4°C 78% 7.0 mph W11.3 kmh W 13.0 mph20.9 kmh 30.26 in1024.7 mb 0.00 in0.0 mm 0.00 in0.0 mm 0.25 in6.4 mm
09:30 PM 18.9°F-7.3°C 13.4°F-10.3°C 79% 7.0 mph W11.3 kmh W 11.0 mph17.7 kmh 30.27 in1025.1 mb 0.00 in0.0 mm 0.00 in0.0 mm 0.25 in6.4 mm
09:45 PM 18.7°F-7.4°C 13.2°F-10.4°C 79% 7.0 mph W11.3 kmh W 13.0 mph20.9 kmh 30.27 in1025.1 mb 0.00 in0.0 mm 0.00 in0.0 mm 0.25 in6.4 mm
10:00 PM 18.3°F-7.6°C 13.2°F-10.4°C 80% 6.0 mph W9.7 kmh W 12.0 mph19.3 kmh 30.28 in1025.4 mb 0.00 in0.0 mm 0.00 in0.0 mm 0.25 in6.4 mm
10:15 PM 17.8°F-7.9°C 12.7°F-10.7°C 80% 6.0 mph W9.7 kmh W 11.0 mph17.7 kmh 30.29 in1025.7 mb 0.00 in0.0 mm 0.00 in0.0 mm 0.25 in6.4 mm
10:30 PM 17.4°F-8.1°C 12.3°F-10.9°C 80% 5.0 mph W8.0 kmh W 10.0 mph16.1 kmh 30.29 in1025.7 mb 0.00 in0.0 mm 0.00 in0.0 mm 0.25 in6.4 mm
10:45 PM 16.9°F-8.4°C 12.1°F-11.1°C 81% 6.0 mph W9.7 kmh W 12.0 mph19.3 kmh 30.30 in1026.1 mb 0.00 in0.0 mm 0.00 in0.0 mm 0.25 in6.4 mm
11:00 PM 16.9°F-8.4°C 11.8°F-11.2°C 80% 6.0 mph W9.7 kmh W 10.0 mph16.1 kmh 30.30 in1026.1 mb 0.00 in0.0 mm 0.00 in0.0 mm 0.25 in6.4 mm
11:15 PM 16.9°F-8.4°C 11.8°F-11.2°C 80% 6.0 mph W9.7 kmh W 12.0 mph19.3 kmh 30.31 in1026.4 mb 0.00 in0.0 mm 0.00 in0.0 mm 0.25 in6.4 mm
11:30 PM 16.9°F-8.4°C 11.8°F-11.2°C 80% 6.0 mph W9.7 kmh W 12.0 mph19.3 kmh 30.32 in1026.8 mb 0.00 in0.0 mm 0.00 in0.0 mm 0.25 in6.4 mm
11:45 PM 16.5°F-8.6°C 11.7°F-11.3°C 81% 5.0 mph W8.0 kmh W 10.0 mph16.1 kmh 30.32 in1026.8 mb 0.00 in0.0 mm 0.00 in0.0 mm 0.25 in6.4 mm